Time;durP1;ratioP1;P1;durP2;ratioP2;P2;SDS_P1;SDS_P2;PMS_P1;PMS_P2;Temp;Humidity;BMP_temperature;BMP_pressure;BME280_temperature;BME280_humidity;BME280_pressure;Samples;Min_cycle;Max_cycle;Signal;HPM_P1;HPM_P2
2021/09/22 00:00:18;;;;;;;;;;;;;;;19.46;56.57;101388.44;5076419;28;810;-46
2021/09/22 00:02:43;;;;;;;;;;;;;;;19.53;56.50;101389.00;5076651;28;827;-49
2021/09/22 00:05:09;;;;;;;;;;;;;;;19.48;56.49;101391.75;5076001;28;1975;-53
2021/09/22 00:07:34;;;;;;;;;;;;;;;19.52;56.31;101397.53;5075928;28;1088;-49
2021/09/22 00:10:00;;;;;;;;;;;;;;;19.45;56.33;101393.16;5076061;28;755;-43
2021/09/22 00:12:25;;;;;;;;;;;;;;;19.52;56.24;101386.50;5075423;28;901;-48
2021/09/22 00:14:51;;;;;;;;;;;;;;;19.47;56.29;101390.09;5076246;28;763;-48
2021/09/22 00:17:16;;;;;;;;;;;;;;;19.54;56.45;101392.56;5075948;28;827;-51
2021/09/22 00:19:42;;;;;;;;;;;;;;;19.46;56.45;101383.78;5076349;28;805;-45
2021/09/22 00:22:07;;;;;;;;;;;;;;;19.55;56.26;101380.44;5075488;28;973;-52
2021/09/22 00:24:33;;;;;;;;;;;;;;;19.51;56.26;101371.06;5075537;28;1969;-49
2021/09/22 00:26:58;;;;;;;;;;;;;;;19.58;56.19;101364.16;5075964;28;783;-49
2021/09/22 00:29:24;;;;;;;;;;;;;;;19.42;56.47;101366.13;5074403;28;1108;-53
2021/09/22 00:31:50;;;;;;;;;;;;;;;19.45;56.31;101365.56;5074992;28;767;-51
2021/09/22 00:34:18;;;;;;;;;;;;;;;19.52;56.18;101364.44;5076143;28;767;-51
2021/09/22 00:36:44;;;;;;;;;;;;;;;19.49;56.42;101355.63;5074732;28;1318;-50
2021/09/22 00:39:10;;;;;;;;;;;;;;;19.51;56.53;101351.78;5075504;28;835;-44
2021/09/22 00:41:36;;;;;;;;;;;;;;;19.36;56.55;101341.59;5075702;28;890;-50
2021/09/22 00:44:02;;;;;;;;;;;;;;;19.46;56.86;101347.06;5075854;28;2404;-53
2021/09/22 00:46:27;;;;;;;;;;;;;;;19.62;56.00;101342.34;5075251;28;794;-52
2021/09/22 00:48:53;;;;;;;;;;;;;;;19.47;56.69;101341.31;5095752;28;1131;-51
2021/09/22 00:51:20;;;;;;;;;;;;;;;19.49;56.66;101330.81;5091171;28;1319;-51
2021/09/22 00:53:45;;;;;;;;;;;;;;;19.39;56.85;101330.84;5057271;28;1016;-53
2021/09/22 00:56:13;;;;;;;;;;;;;;;19.54;56.48;101329.94;5074536;28;1256;-50
2021/09/22 00:58:39;;;;;;;;;;;;;;;19.48;56.70;101334.66;5074420;28;776;-46
2021/09/22 01:01:04;;;;;;;;;;;;;;;19.71;56.05;101329.63;5073872;28;1242;-50
2021/09/22 01:03:30;;;;;;;;;;;;;;;19.44;56.99;101327.22;5074444;28;1190;-50
2021/09/22 01:05:56;;;;;;;;;;;;;;;19.58;56.56;101325.53;5075504;28;1910;-52
2021/09/22 01:08:22;;;;;;;;;;;;;;;19.53;56.84;101328.31;5075165;28;970;-47
2021/09/22 01:10:47;;;;;;;;;;;;;;;19.53;56.67;101333.00;5075276;28;818;-50
2021/09/22 01:13:13;;;;;;;;;;;;;;;19.54;56.84;101329.13;5075219;28;859;-47
2021/09/22 01:15:39;;;;;;;;;;;;;;;19.64;56.56;101329.09;5075159;28;798;-48
2021/09/22 01:18:07;;;;;;;;;;;;;;;19.82;55.98;101334.06;5074595;28;1098;-52
2021/09/22 01:20:33;;;;;;;;;;;;;;;19.52;56.99;101337.69;5074146;28;779;-49
2021/09/22 01:23:00;;;;;;;;;;;;;;;19.66;56.63;101321.38;5073249;28;1109;-45
2021/09/22 01:25:27;;;;;;;;;;;;;;;19.50;56.90;101317.81;5094760;28;1913;-52
2021/09/22 01:27:54;;;;;;;;;;;;;;;19.47;57.01;101313.72;5078376;28;1162;-46
2021/09/22 01:30:21;;;;;;;;;;;;;;;19.62;56.39;101312.00;5079228;28;782;-44
2021/09/22 01:32:51;;;;;;;;;;;;;;;19.46;56.58;101317.56;5077925;28;712;-50
2021/09/22 01:35:18;;;;;;;;;;;;;;;19.31;57.05;101309.34;5078210;28;1133;-54
2021/09/22 01:37:58;;;;;;;;;;;;;;;19.43;56.45;101304.34;5077558;28;1221;-53
2021/09/22 01:40:55;;;;;;;;;;;;;;;19.44;56.68;101307.94;5079280;28;656;-48
2021/09/22 01:43:21;;;;;;;;;;;;;;;19.38;56.69;101298.03;5078005;28;1214;-51
2021/09/22 01:45:48;;;;;;;;;;;;;;;19.35;56.72;101301.31;5077803;28;1990;-48
2021/09/22 01:48:14;;;;;;;;;;;;;;;19.41;56.45;101303.78;5081008;28;1259;-43
2021/09/22 01:50:42;;;;;;;;;;;;;;;19.32;56.53;101316.50;5081211;28;1092;-46
2021/09/22 01:53:08;;;;;;;;;;;;;;;19.40;56.28;101302.13;5080094;28;1086;-48
2021/09/22 01:55:33;;;;;;;;;;;;;;;19.31;56.60;101312.09;5078841;28;826;-48
2021/09/22 01:58:07;;;;;;;;;;;;;;;19.40;56.42;101309.59;5078037;28;1106;-48
2021/09/22 02:00:50;;;;;;;;;;;;;;;19.22;56.86;101306.31;5078147;28;622;-48
2021/09/22 02:03:28;;;;;;;;;;;;;;;19.24;56.96;101320.66;5077577;28;1096;-49
2021/09/22 02:06:01;;;;;;;;;;;;;;;19.33;56.93;101312.63;5077783;28;1909;-45
2021/09/22 02:08:26;;;;;;;;;;;;;;;19.37;56.82;101318.44;5077141;28;1204;-45
2021/09/22 02:10:59;;;;;;;;;;;;;;;19.49;56.59;101305.97;5077380;28;1046;-48
2021/09/22 02:13:25;;;;;;;;;;;;;;;19.43;56.84;101307.09;5077149;28;1222;-45
2021/09/22 02:15:50;;;;;;;;;;;;;;;19.39;56.97;101316.19;5077285;28;1106;-43
2021/09/22 02:18:34;;;;;;;;;;;;;;;19.46;56.91;101316.72;5078715;28;602;-47
2021/09/22 02:21:01;;;;;;;;;;;;;;;19.38;57.03;101315.38;5077123;28;1233;-44
2021/09/22 02:23:29;;;;;;;;;;;;;;;19.55;56.53;101319.75;5077495;28;1169;-49
2021/09/22 02:25:59;;;;;;;;;;;;;;;19.38;57.03;101320.91;5076893;28;1967;-50
2021/09/22 02:28:26;;;;;;;;;;;;;;;19.37;57.23;101313.72;5076699;28;1372;-44
2021/09/22 02:30:51;;;;;;;;;;;;;;;19.53;56.70;101316.44;5077101;28;1255;-50
2021/09/22 02:33:17;;;;;;;;;;;;;;;19.54;56.80;101313.41;5077471;28;1158;-52
2021/09/22 02:35:43;;;;;;;;;;;;;;;19.38;57.16;101318.16;5076235;28;1400;-50
2021/09/22 02:38:16;;;;;;;;;;;;;;;19.38;57.34;101312.63;5076433;28;1367;-44
2021/09/22 02:40:44;;;;;;;;;;;;;;;19.45;57.09;101318.66;5076935;28;1114;-50
2021/09/22 02:43:10;;;;;;;;;;;;;;;19.41;57.07;101312.06;5076336;28;1102;-46
2021/09/22 02:45:36;;;;;;;;;;;;;;;19.42;57.26;101305.44;5077112;28;1906;-49
2021/09/22 02:48:02;;;;;;;;;;;;;;;19.41;57.27;101300.22;5080716;28;1111;-52
2021/09/22 02:50:30;;;;;;;;;;;;;;;19.51;56.98;101308.44;5096747;28;1250;-47
2021/09/22 02:52:55;;;;;;;;;;;;;;;19.54;56.73;101307.06;5095946;28;1160;-46
2021/09/22 02:55:21;;;;;;;;;;;;;;;19.71;56.49;101301.22;5097162;28;1217;-50
2021/09/22 02:57:49;;;;;;;;;;;;;;;19.60;56.58;101294.91;5079909;28;1135;-49
2021/09/22 03:00:14;;;;;;;;;;;;;;;19.55;56.70;101300.44;5080192;28;1016;-49
2021/09/22 03:02:40;;;;;;;;;;;;;;;19.53;57.15;101299.91;5079819;28;1360;-45
2021/09/22 03:05:06;;;;;;;;;;;;;;;19.53;56.89;101299.91;5096140;28;1917;-51
2021/09/22 03:07:32;;;;;;;;;;;;;;;19.51;57.01;101293.84;5095955;28;1653;-49
2021/09/22 03:09:58;;;;;;;;;;;;;;;19.66;56.48;101296.53;5097822;28;771;-51
2021/09/22 03:12:23;;;;;;;;;;;;;;;19.54;57.06;101296.03;5079708;28;1107;-48
2021/09/22 03:14:49;;;;;;;;;;;;;;;19.50;57.41;101295.75;5078832;28;1256;-49
2021/09/22 03:17:15;;;;;;;;;;;;;;;19.52;57.01;101287.19;5096477;28;1098;-47
2021/09/22 03:19:41;;;;;;;;;;;;;;;19.76;56.55;101288.22;5079846;28;1102;-43
2021/09/22 03:22:07;;;;;;;;;;;;;;;19.73;56.31;101293.50;5075481;28;1188;-41
2021/09/22 03:24:58;;;;;;;;;;;;;;;19.74;56.82;101279.41;5074742;28;1997;-41
2021/09/22 03:27:24;;;;;;;;;;;;;;;19.90;56.23;101279.38;5076166;28;1157;-55
2021/09/22 03:29:50;;;;;;;;;;;;;;;19.73;56.73;101277.75;5076043;28;1153;-40
2021/09/22 03:32:16;;;;;;;;;;;;;;;19.69;56.87;101284.94;5075718;28;1157;-47
2021/09/22 03:34:41;;;;;;;;;;;;;;;19.83;56.62;101276.91;5076836;28;933;-42
2021/09/22 03:37:07;;;;;;;;;;;;;;;19.98;56.11;101270.50;5075138;28;1197;-52
2021/09/22 03:39:32;;;;;;;;;;;;;;;19.91;56.41;101269.97;5075963;28;1174;-41
2021/09/22 03:41:58;;;;;;;;;;;;;;;19.83;56.54;101282.44;5075844;28;1110;-54
2021/09/22 03:44:25;;;;;;;;;;;;;;;19.73;56.99;101280.50;5075276;28;1989;-41
2021/09/22 03:46:51;;;;;;;;;;;;;;;19.73;56.85;101283.28;5078073;28;1380;-47
2021/09/22 03:49:16;;;;;;;;;;;;;;;19.85;56.51;101288.47;5096797;28;794;-54
2021/09/22 03:51:42;;;;;;;;;;;;;;;20.01;56.13;101286.47;5074122;28;1452;-51
2021/09/22 03:54:07;;;;;;;;;;;;;;;19.79;56.61;101284.06;5078383;28;1298;-47
2021/09/22 03:56:33;;;;;;;;;;;;;;;19.93;56.31;101287.06;5078722;28;1288;-47
2021/09/22 03:59:00;;;;;;;;;;;;;;;19.92;56.38;101279.91;5078528;28;1110;-41
2021/09/22 04:01:26;;;;;;;;;;;;;;;19.94;56.30;101277.69;5078661;28;1177;-44
2021/09/22 04:03:51;;;;;;;;;;;;;;;20.03;55.93;101275.97;5078934;28;1098;-44
2021/09/22 04:06:17;;;;;;;;;;;;;;;20.18;55.64;101269.53;5093648;28;1906;-55
2021/09/22 04:08:43;;;;;;;;;;;;;;;20.02;56.01;101267.97;5078506;28;1275;-42
2021/09/22 04:11:08;;;;;;;;;;;;;;;19.95;56.15;101279.31;5071402;28;1190;-56
2021/09/22 04:13:34;;;;;;;;;;;;;;;19.99;55.92;101285.94;5077387;28;1279;-40
2021/09/22 04:16:01;;;;;;;;;;;;;;;19.93;56.27;101276.03;5077800;28;1185;-42
2021/09/22 04:18:26;;;;;;;;;;;;;;;19.77;56.88;101280.78;5078275;28;1090;-55
2021/09/22 04:20:52;;;;;;;;;;;;;;;19.70;56.47;101277.47;5077771;28;1210;-52
2021/09/22 04:23:20;;;;;;;;;;;;;;;19.81;56.49;101279.97;5073791;28;1112;-54
2021/09/22 04:25:46;;;;;;;;;;;;;;;19.85;56.10;101279.38;5074183;28;1914;-44
2021/09/22 04:28:12;;;;;;;;;;;;;;;19.84;56.16;101278.56;5074184;28;1094;-52
2021/09/22 04:30:56;;;;;;;;;;;;;;;19.72;56.30;101275.28;5074921;28;597;-38
2021/09/22 04:33:40;;;;;;;;;;;;;;;19.80;55.72;101281.06;5075443;28;590;-54
2021/09/22 04:36:24;;;;;;;;;;;;;;;19.89;55.38;101281.28;5074568;28;946;-37
2021/09/22 04:39:08;;;;;;;;;;;;;;;19.76;55.66;101292.91;5075172;28;626;-54
2021/09/22 04:41:51;;;;;;;;;;;;;;;19.70;55.71;101289.34;5073973;28;645;-53
2021/09/22 04:44:35;;;;;;;;;;;;;;;19.78;55.55;101294.28;5075122;28;1910;-49
2021/09/22 04:47:19;;;;;;;;;;;;;;;19.61;55.96;101302.06;5081941;28;1043;-55
2021/09/22 04:50:04;;;;;;;;;;;;;;;19.67;56.04;101317.53;5094794;28;621;-53
2021/09/22 04:52:48;;;;;;;;;;;;;;;19.75;55.39;101308.63;5079815;28;1082;-54
2021/09/22 04:55:33;;;;;;;;;;;;;;;19.70;55.96;101303.16;5075173;28;612;-38
2021/09/22 04:58:17;;;;;;;;;;;;;;;19.86;55.53;101294.84;5074953;28;605;-54
2021/09/22 05:01:04;;;;;;;;;;;;;;;19.77;55.61;101287.13;5074694;28;628;-42
2021/09/22 05:03:48;;;;;;;;;;;;;;;19.90;55.17;101298.69;5075036;28;656;-53
2021/09/22 05:06:34;;;;;;;;;;;;;;;19.85;55.21;101298.69;5074527;28;970;-44
2021/09/22 05:09:32;;;;;;;;;;;;;;;19.49;56.41;101303.22;5051762;28;951;-50
2021/09/22 05:12:16;;;;;;;;;;;;;;;19.65;56.02;101297.66;5074119;28;700;-45
2021/09/22 05:15:00;;;;;;;;;;;;;;;19.64;55.97;101296.00;5074911;28;622;-55
2021/09/22 05:17:44;;;;;;;;;;;;;;;19.65;56.03;101303.16;5074951;28;656;-52
2021/09/22 05:20:30;;;;;;;;;;;;;;;19.79;55.65;101295.97;5074365;28;668;-52
2021/09/22 05:23:31;;;;;;;;;;;;;;;19.80;55.49;101294.84;5012571;28;1163;-40
2021/09/22 05:26:15;;;;;;;;;;;;;;;19.57;56.19;101301.81;5087284;28;1910;-38
2021/09/22 05:28:58;;;;;;;;;;;;;;;19.60;56.33;101294.91;5095423;28;696;-50
2021/09/22 05:31:43;;;;;;;;;;;;;;;19.68;55.69;101302.59;5094702;28;617;-53
2021/09/22 05:34:27;;;;;;;;;;;;;;;19.67;55.94;101301.78;5094627;28;656;-52
2021/09/22 05:37:11;;;;;;;;;;;;;;;19.75;55.68;101305.88;5084370;28;918;-44
2021/09/22 05:39:55;;;;;;;;;;;;;;;19.75;55.60;101303.13;5079323;28;1369;-40
2021/09/22 05:42:38;;;;;;;;;;;;;;;19.53;56.49;101310.94;5085492;28;594;-46
2021/09/22 05:45:22;;;;;;;;;;;;;;;19.62;56.29;101310.06;5094774;28;1906;-46
2021/09/22 05:48:06;;;;;;;;;;;;;;;19.61;56.17;101308.41;5094238;28;1052;-41
2021/09/22 05:50:50;;;;;;;;;;;;;;;19.74;56.01;101301.50;5095206;28;589;-48
2021/09/22 05:53:38;;;;;;;;;;;;;;;19.70;55.90;101296.78;5073657;28;1110;-51
2021/09/22 05:56:22;;;;;;;;;;;;;;;19.71;55.83;101296.50;5074120;28;586;-50
2021/09/22 05:59:12;;;;;;;;;;;;;;;19.67;55.99;101289.94;5074467;28;649;-49
2021/09/22 06:01:56;;;;;;;;;;;;;;;19.73;55.89;101285.22;5074012;28;625;-45
2021/09/22 06:04:40;;;;;;;;;;;;;;;19.73;55.83;101272.22;5074423;28;1902;-51
2021/09/22 06:07:20;;;;;;;;;;;;;;;19.89;55.16;101269.44;5082664;28;937;-48
2021/09/22 06:10:05;;;;;;;;;;;;;;;19.65;56.13;101264.53;5080651;28;863;-54
2021/09/22 06:12:56;;;;;;;;;;;;;;;19.67;56.12;101256.81;4995845;28;1166;-38
2021/09/22 06:15:22;;;;;;;;;;;;;;;19.43;56.68;101262.13;5074434;28;929;-49
2021/09/22 06:17:47;;;;;;;;;;;;;;;19.55;56.38;101259.06;5077188;28;866;-37
2021/09/22 06:20:13;;;;;;;;;;;;;;;19.84;55.69;101262.00;5060485;28;1264;-38
2021/09/22 06:22:39;;;;;;;;;;;;;;;19.56;56.37;101255.19;5077037;28;1017;-44
2021/09/22 06:25:05;;;;;;;;;;;;;;;19.70;55.93;101258.16;5077765;28;1914;-50
2021/09/22 06:27:33;;;;;;;;;;;;;;;19.89;55.25;101263.91;5077577;28;810;-51
2021/09/22 06:30:04;;;;;;;;;;;;;;;19.83;55.51;101274.97;5088269;28;830;-53
2021/09/22 06:32:31;;;;;;;;;;;;;;;19.67;55.96;101265.09;5079595;28;934;-49
2021/09/22 06:35:15;;;;;;;;;;;;;;;19.73;55.79;101261.19;5097652;28;1106;-53
2021/09/22 06:38:03;;;;;;;;;;;;;;;19.76;55.71;101249.59;5096462;28;1330;-53
2021/09/22 06:40:39;;;;;;;;;;;;;;;19.78;55.81;101252.06;5097651;28;986;-50
2021/09/22 06:43:05;;;;;;;;;;;;;;;19.83;55.66;101250.13;5096414;28;1138;-53
2021/09/22 06:45:31;;;;;;;;;;;;;;;19.82;55.55;101244.91;5097179;28;1917;-50
2021/09/22 06:47:56;;;;;;;;;;;;;;;19.74;55.88;101240.78;5077744;28;1197;-55
2021/09/22 06:50:21;;;;;;;;;;;;;;;19.75;55.83;101234.13;5097636;28;751;-53
2021/09/22 06:52:47;;;;;;;;;;;;;;;19.82;55.64;101229.19;5081806;28;1020;-49
2021/09/22 06:55:12;;;;;;;;;;;;;;;19.67;56.04;101226.47;5076643;28;803;-46
2021/09/22 06:57:38;;;;;;;;;;;;;;;19.72;56.01;101234.69;5076764;28;869;-39
2021/09/22 07:00:04;;;;;;;;;;;;;;;19.78;55.67;101230.84;5077423;28;763;-48
2021/09/22 07:02:29;;;;;;;;;;;;;;;19.70;55.90;101241.59;5077321;28;766;-54
2021/09/22 07:04:54;;;;;;;;;;;;;;;19.61;56.17;101244.97;5076841;28;1975;-42
2021/09/22 07:07:20;;;;;;;;;;;;;;;19.76;56.00;101252.34;5076757;28;1000;-48
2021/09/22 07:09:45;;;;;;;;;;;;;;;19.65;55.96;101246.03;5076755;28;795;-53
2021/09/22 07:12:11;;;;;;;;;;;;;;;19.75;55.80;101247.13;5076947;28;791;-39
2021/09/22 07:14:36;;;;;;;;;;;;;;;19.89;55.30;101247.34;5076457;28;822;-48
2021/09/22 07:17:02;;;;;;;;;;;;;;;19.86;55.34;101247.94;5076323;28;779;-40
2021/09/22 07:19:27;;;;;;;;;;;;;;;19.88;55.39;101254.81;5076714;28;791;-49
2021/09/22 07:21:55;;;;;;;;;;;;;;;19.79;55.46;101254.56;5076221;28;970;-49
2021/09/22 07:24:21;;;;;;;;;;;;;;;19.64;56.07;101258.22;5078749;28;1980;-54
2021/09/22 07:26:46;;;;;;;;;;;;;;;19.77;55.68;101248.47;5096969;28;868;-40
2021/09/22 07:29:12;;;;;;;;;;;;;;;19.69;56.05;101253.78;5096903;28;798;-53
2021/09/22 07:31:38;;;;;;;;;;;;;;;19.61;56.27;101242.19;5096569;28;874;-42
2021/09/22 07:34:03;;;;;;;;;;;;;;;19.66;55.87;101244.94;5096847;28;810;-48
2021/09/22 07:36:30;;;;;;;;;;;;;;;19.60;56.17;101235.06;5091793;28;966;-39
2021/09/22 07:38:55;;;;;;;;;;;;;;;19.46;56.38;101229.31;5076211;28;847;-50
2021/09/22 07:41:21;;;;;;;;;;;;;;;19.45;56.37;101224.09;5076111;28;983;-49
2021/09/22 07:43:46;;;;;;;;;;;;;;;19.43;56.67;101218.84;5076472;28;811;-42
2021/09/22 07:46:11;;;;;;;;;;;;;;;19.45;56.51;101221.34;5076107;28;1917;-48
2021/09/22 07:48:37;;;;;;;;;;;;;;;19.54;56.09;101218.81;5093217;28;1157;-46
2021/09/22 07:51:03;;;;;;;;;;;;;;;19.44;56.38;101223.25;5095716;28;1005;-47
2021/09/22 07:53:28;;;;;;;;;;;;;;;19.41;56.59;101229.34;5082461;28;1147;-43
2021/09/22 07:55:54;;;;;;;;;;;;;;;19.39;56.54;101227.97;5096143;28;739;-38
2021/09/22 07:58:19;;;;;;;;;;;;;;;19.41;56.56;101214.72;5096351;28;747;-39
2021/09/22 08:00:45;;;;;;;;;;;;;;;19.61;56.07;101213.78;5096119;28;811;-48
2021/09/22 08:03:11;;;;;;;;;;;;;;;19.53;56.06;101208.88;5095734;28;767;-45
2021/09/22 08:05:39;;;;;;;;;;;;;;;19.45;56.63;101204.78;5096140;28;1914;-52
2021/09/22 08:08:06;;;;;;;;;;;;;;;19.49;56.21;101192.91;5077763;28;1004;-51
2021/09/22 08:10:31;;;;;;;;;;;;;;;19.46;56.24;101185.19;5075530;28;842;-42
2021/09/22 08:12:57;;;;;;;;;;;;;;;19.49;56.13;101190.13;5075407;28;743;-39
2021/09/22 08:15:22;;;;;;;;;;;;;;;19.55;55.96;101185.41;5073956;28;816;-52
2021/09/22 08:17:47;;;;;;;;;;;;;;;19.53;56.24;101184.03;5075109;28;767;-39
2021/09/22 08:20:15;;;;;;;;;;;;;;;19.51;56.37;101186.28;5075391;28;786;-47
2021/09/22 08:22:41;;;;;;;;;;;;;;;19.52;56.10;101180.47;5080298;28;991;-40
2021/09/22 08:25:07;;;;;;;;;;;;;;;19.49;56.06;101173.59;5085749;28;1929;-47
2021/09/22 08:27:32;;;;;;;;;;;;;;;19.56;55.76;101169.69;5083326;28;1280;-52
2021/09/22 08:29:57;;;;;;;;;;;;;;;19.43;56.23;101171.97;5085627;28;1200;-41
2021/09/22 08:32:23;;;;;;;;;;;;;;;19.52;55.95;101166.69;5085055;28;1276;-47
2021/09/22 08:34:48;;;;;;;;;;;;;;;19.62;55.76;101166.63;5083631;28;1185;-54
2021/09/22 08:37:14;;;;;;;;;;;;;;;19.49;56.07;101161.75;5085175;28;1185;-38
2021/09/22 08:39:39;;;;;;;;;;;;;;;19.52;56.07;101160.31;5087038;28;1283;-48
2021/09/22 08:42:05;;;;;;;;;;;;;;;19.51;56.12;101148.47;5084929;28;1166;-47
2021/09/22 08:44:30;;;;;;;;;;;;;;;19.47;56.10;101148.25;5091620;28;1977;-40
2021/09/22 08:46:56;;;;;;;;;;;;;;;19.58;55.92;101143.47;5095152;28;999;-46
2021/09/22 08:49:21;;;;;;;;;;;;;;;19.67;55.80;101140.94;5095011;28;783;-44
2021/09/22 08:51:47;;;;;;;;;;;;;;;19.60;55.98;101145.94;5087821;28;1002;-39
2021/09/22 08:54:13;;;;;;;;;;;;;;;19.60;55.91;101140.41;5074819;28;1182;-39
2021/09/22 08:56:38;;;;;;;;;;;;;;;19.56;56.09;101131.06;5075288;28;806;-50
2021/09/22 08:59:04;;;;;;;;;;;;;;;19.73;55.77;101127.94;5074740;28;857;-51
2021/09/22 09:01:30;;;;;;;;;;;;;;;19.52;56.25;101127.22;5075072;28;767;-39
2021/09/22 09:03:55;;;;;;;;;;;;;;;19.58;55.75;101128.84;5075021;28;775;-48
2021/09/22 09:06:21;;;;;;;;;;;;;;;19.54;56.14;101125.03;5073412;28;1981;-51
2021/09/22 09:08:47;;;;;;;;;;;;;;;19.54;56.02;101136.06;5074407;28;823;-43
2021/09/22 09:11:12;;;;;;;;;;;;;;;19.55;56.07;101133.00;5074320;28;739;-38
2021/09/22 09:13:48;;;;;;;;;;;;;;;19.36;56.73;101130.06;5074971;28;799;-45
2021/09/22 09:16:22;;;;;;;;;;;;;;;19.63;55.85;101123.31;5074635;28;762;-42
2021/09/22 09:18:48;;;;;;;;;;;;;;;19.59;55.99;101119.47;5074894;28;787;-41
2021/09/22 09:21:14;;;;;;;;;;;;;;;19.65;55.79;101110.06;5074437;28;950;-47
2021/09/22 09:23:49;;;;;;;;;;;;;;;19.56;55.96;101106.25;5074726;28;851;-42
2021/09/22 09:26:16;;;;;;;;;;;;;;;19.55;56.03;101112.88;5074817;28;1982;-53
2021/09/22 09:28:41;;;;;;;;;;;;;;;19.40;56.50;101109.09;5074856;28;821;-49
2021/09/22 09:31:07;;;;;;;;;;;;;;;19.46;56.15;101107.97;5079502;28;793;-42
2021/09/22 09:33:38;;;;;;;;;;;;;;;19.40;56.39;101103.56;5077117;28;888;-38
2021/09/22 09:36:16;;;;;;;;;;;;;;;19.52;56.04;101094.13;5075020;28;1005;-38
2021/09/22 09:39:04;;;;;;;;;;;;;;;19.62;55.82;101094.06;5074552;28;807;-47
2021/09/22 09:41:30;;;;;;;;;;;;;;;19.57;56.10;101085.81;5062486;28;1413;-51
2021/09/22 09:43:56;;;;;;;;;;;;;;;19.52;56.10;101083.94;5074518;28;811;-51
2021/09/22 09:46:22;;;;;;;;;;;;;;;19.43;56.34;101083.72;5076102;28;1929;-50
2021/09/22 09:48:54;;;;;;;;;;;;;;;19.59;55.76;101083.63;5097724;28;1131;-38
2021/09/22 09:51:20;;;;;;;;;;;;;;;19.54;55.97;101070.66;5096083;28;870;-50
2021/09/22 09:53:45;;;;;;;;;;;;;;;19.60;55.92;101077.81;5098238;28;1162;-40
2021/09/22 09:56:17;;;;;;;;;;;;;;;19.61;55.78;101070.34;5099061;28;854;-48
2021/09/22 09:58:44;;;;;;;;;;;;;;;19.47;56.30;101056.38;5098583;28;771;-43
2021/09/22 10:01:09;;;;;;;;;;;;;;;19.47;56.16;101057.22;5097667;28;744;-52
2021/09/22 10:03:35;;;;;;;;;;;;;;;19.49;56.11;101057.75;5098443;28;763;-39
2021/09/22 10:06:00;;;;;;;;;;;;;;;19.58;55.84;101066.22;5080068;28;1992;-40
2021/09/22 10:08:26;;;;;;;;;;;;;;;19.73;55.59;101062.53;5077418;28;941;-39
2021/09/22 10:10:53;;;;;;;;;;;;;;;19.56;55.87;101053.81;5077989;28;811;-41
2021/09/22 10:13:18;;;;;;;;;;;;;;;19.49;56.05;101051.41;5077975;28;819;-43
2021/09/22 10:15:44;;;;;;;;;;;;;;;19.28;56.65;101039.69;5077709;28;814;-49
2021/09/22 10:18:10;;;;;;;;;;;;;;;19.30;56.67;101046.56;5078142;28;783;-38
2021/09/22 10:20:38;;;;;;;;;;;;;;;19.39;56.37;101044.03;5077557;28;803;-46
2021/09/22 10:23:05;;;;;;;;;;;;;;;19.51;55.76;101048.38;5075540;28;915;-37
2021/09/22 10:25:30;;;;;;;;;;;;;;;19.35;56.51;101051.22;5076997;28;1917;-38
2021/09/22 10:27:56;;;;;;;;;;;;;;;19.33;56.34;101047.91;5076599;28;755;-38
2021/09/22 10:30:31;;;;;;;;;;;;;;;19.46;55.74;101040.94;5076163;28;775;-46
2021/09/22 10:32:56;;;;;;;;;;;;;;;19.35;56.21;101039.38;5077668;28;743;-37
2021/09/22 10:35:25;;;;;;;;;;;;;;;19.53;55.71;101035.09;5076134;28;802;-42
2021/09/22 10:37:51;;;;;;;;;;;;;;;19.31;56.08;101034.44;5077200;28;906;-39
2021/09/22 10:40:17;;;;;;;;;;;;;;;19.35;56.24;101050.38;5077883;28;798;-48
2021/09/22 10:42:43;;;;;;;;;;;;;;;19.37;55.97;101043.47;5077075;28;822;-38
2021/09/22 10:45:12;;;;;;;;;;;;;;;19.31;56.45;101030.84;5077398;28;1913;-38
2021/09/22 10:47:37;;;;;;;;;;;;;;;19.26;56.44;101030.88;5086645;28;1119;-48
2021/09/22 10:50:03;;;;;;;;;;;;;;;19.27;56.43;101027.03;5097815;28;759;-41
2021/09/22 10:52:39;;;;;;;;;;;;;;;19.42;55.98;101026.91;5084307;28;1112;-47
2021/09/22 10:55:12;;;;;;;;;;;;;;;19.27;56.31;101016.00;5077409;28;858;-51
2021/09/22 10:57:38;;;;;;;;;;;;;;;19.32;56.37;101019.53;5076943;28;783;-39
2021/09/22 11:00:12;;;;;;;;;;;;;;;19.37;56.11;101015.91;5076506;28;819;-50
2021/09/22 11:02:44;;;;;;;;;;;;;;;19.35;56.28;101015.38;5076868;28;795;-40
2021/09/22 11:05:09;;;;;;;;;;;;;;;19.19;56.76;101019.34;5077009;28;1976;-50
2021/09/22 11:08:04;;;;;;;;;;;;;;;19.29;56.05;101019.28;5088431;28;963;-53
2021/09/22 11:10:33;;;;;;;;;;;;;;;19.29;56.29;101008.25;5083961;28;1256;-50
2021/09/22 11:13:17;;;;;;;;;;;;;;;19.37;55.93;101013.16;5096471;28;779;-51
2021/09/22 11:15:43;;;;;;;;;;;;;;;19.42;55.86;100993.81;5096789;28;826;-48
2021/09/22 11:18:08;;;;;;;;;;;;;;;19.32;56.21;100996.63;5090254;28;1173;-43
2021/09/22 11:20:33;;;;;;;;;;;;;;;19.43;56.16;100981.69;5077272;28;780;-46
2021/09/22 11:23:07;;;;;;;;;;;;;;;19.39;56.30;100986.13;5075556;28;955;-44
2021/09/22 11:25:36;;;;;;;;;;;;;;;19.49;56.20;100980.53;5076367;28;1902;-47
2021/09/22 11:28:05;;;;;;;;;;;;;;;19.53;55.96;100989.06;5076719;28;755;-39
2021/09/22 11:30:30;;;;;;;;;;;;;;;19.64;55.74;100984.25;5076096;28;815;-45
2021/09/22 11:32:56;;;;;;;;;;;;;;;19.82;55.25;100982.75;5076092;28;807;-48
2021/09/22 11:35:22;;;;;;;;;;;;;;;19.70;55.59;100979.50;5076780;28;743;-48
2021/09/22 11:37:52;;;;;;;;;;;;;;;19.69;55.69;100984.22;5075901;28;930;-52
2021/09/22 11:40:43;;;;;;;;;;;;;;;19.77;55.39;100985.53;5076598;28;793;-52
2021/09/22 11:43:15;;;;;;;;;;;;;;;19.66;55.54;100982.84;5076444;28;787;-45
2021/09/22 11:45:45;;;;;;;;;;;;;;;19.61;55.71;100976.56;5075930;28;1981;-41
2021/09/22 11:48:11;;;;;;;;;;;;;;;19.68;55.63;100977.03;5090356;28;1197;-50
2021/09/22 11:50:38;;;;;;;;;;;;;;;19.72;55.41;100972.59;5096439;28;763;-51
2021/09/22 11:53:05;;;;;;;;;;;;;;;19.56;55.96;100962.81;5077016;28;1035;-44
2021/09/22 11:55:30;;;;;;;;;;;;;;;19.83;55.03;100963.13;5096290;28;780;-38
2021/09/22 11:57:56;;;;;;;;;;;;;;;19.69;55.70;100966.84;5096469;28;823;-40
2021/09/22 12:00:22;;;;;;;;;;;;;;;19.94;54.85;100958.34;5095899;28;810;-37
2021/09/22 12:02:47;;;;;;;;;;;;;;;19.77;55.32;100958.75;5096191;28;783;-37
2021/09/22 12:05:14;;;;;;;;;;;;;;;19.82;55.33;100947.72;5095498;28;1952;-40
2021/09/22 12:07:39;;;;;;;;;;;;;;;19.70;55.58;100952.75;5081109;28;1001;-40
2021/09/22 12:10:05;;;;;;;;;;;;;;;19.85;55.08;100956.50;5074340;28;775;-51
2021/09/22 12:12:32;;;;;;;;;;;;;;;19.77;55.16;100953.25;5075736;28;767;-51
2021/09/22 12:14:57;;;;;;;;;;;;;;;19.83;54.99;100957.63;5075310;28;863;-49
2021/09/22 12:17:33;;;;;;;;;;;;;;;19.83;55.11;100954.84;5075523;28;795;-40
2021/09/22 12:20:02;;;;;;;;;;;;;;;19.80;55.09;100958.22;5075646;28;851;-48
2021/09/22 12:22:28;;;;;;;;;;;;;;;19.81;55.12;100954.34;5074632;28;926;-47
2021/09/22 12:24:54;;;;;;;;;;;;;;;19.80;55.08;100936.13;5076468;28;1909;-41
2021/09/22 12:27:20;;;;;;;;;;;;;;;19.86;54.89;100941.59;5074853;28;794;-51
2021/09/22 12:29:51;;;;;;;;;;;;;;;19.79;55.24;100945.50;5075525;28;788;-43
2021/09/22 12:32:17;;;;;;;;;;;;;;;19.65;55.48;100928.78;5076073;28;1165;-49
2021/09/22 12:34:43;;;;;;;;;;;;;;;19.86;55.02;100936.09;5087485;28;1401;-47
2021/09/22 12:37:15;;;;;;;;;;;;;;;19.74;55.14;100937.28;5094383;28;1017;-39
2021/09/22 12:39:50;;;;;;;;;;;;;;;19.81;55.19;100934.19;5096221;28;782;-49
2021/09/22 12:42:15;;;;;;;;;;;;;;;19.91;54.95;100936.00;5096058;28;882;-55
2021/09/22 12:44:50;;;;;;;;;;;;;;;19.85;55.08;100934.44;5095688;28;1914;-38
2021/09/22 12:47:16;;;;;;;;;;;;;;;20.17;54.06;100923.59;5096139;28;1156;-41
2021/09/22 12:49:41;;;;;;;;;;;;;;;20.14;54.10;100917.81;5095847;28;838;-52
2021/09/22 12:52:07;;;;;;;;;;;;;;;20.10;54.20;100930.56;5077127;28;1023;-37
2021/09/22 12:54:32;;;;;;;;;;;;;;;20.08;54.40;100930.06;5092592;28;1270;-48
2021/09/22 12:57:11;;;;;;;;;;;;;;;20.01;54.53;100935.91;5060043;28;1409;-38
2021/09/22 12:59:37;;;;;;;;;;;;;;;20.00;54.62;100935.09;5075286;28;1228;-51
2021/09/22 13:02:02;;;;;;;;;;;;;;;20.10;54.37;100933.34;5080652;28;1354;-40
2021/09/22 13:04:31;;;;;;;;;;;;;;;20.15;54.14;100920.28;5079218;28;1914;-49